createdAt,value
2022-10-19T00:00:00.289Z,46.7
2022-10-19T00:01:00.439Z,46.0
2022-10-19T00:02:00.424Z,46.4
2022-10-19T00:03:00.342Z,46.4
2022-10-19T00:04:02.424Z,46.8
2022-10-19T00:05:00.412Z,47.2
2022-10-19T00:06:00.327Z,47.5
2022-10-19T00:07:00.446Z,47.4
2022-10-19T00:08:00.322Z,47.8
2022-10-19T00:09:00.301Z,47.5
2022-10-19T00:10:00.334Z,47.5
2022-10-19T00:11:00.326Z,47.8
2022-10-19T00:12:00.335Z,47.0
2022-10-19T00:13:00.529Z,47.5
2022-10-19T00:14:00.512Z,47.5
2022-10-19T00:15:00.294Z,47.2
2022-10-19T00:16:00.289Z,47.4
2022-10-19T00:17:00.276Z,47.6
2022-10-19T00:18:00.296Z,47.1
2022-10-19T00:19:00.457Z,47.6
2022-10-19T00:20:00.290Z,47.3
2022-10-19T00:21:00.273Z,47.7
2022-10-19T00:22:00.291Z,47.7
2022-10-19T00:23:00.343Z,47.9
2022-10-19T00:24:00.333Z,47.7
2022-10-19T00:25:00.475Z,48.2
2022-10-19T00:26:00.302Z,47.8
2022-10-19T00:27:00.334Z,48.0
2022-10-19T00:28:00.319Z,48.6
2022-10-19T00:29:00.382Z,49.1
2022-10-19T00:30:00.455Z,48.5
2022-10-19T00:31:00.453Z,48.2
2022-10-19T00:32:00.330Z,48.6
2022-10-19T00:33:00.339Z,48.8
2022-10-19T00:34:00.366Z,48.2
2022-10-19T00:35:00.312Z,48.3
2022-10-19T00:36:00.312Z,48.7
2022-10-19T00:37:00.428Z,49.5
2022-10-19T00:38:00.314Z,49.8
2022-10-19T00:39:00.276Z,50.0
2022-10-19T00:40:00.336Z,49.4
2022-10-19T00:41:00.295Z,50.3
2022-10-19T00:42:00.279Z,50.8
2022-10-19T00:43:00.489Z,50.4
2022-10-19T00:44:00.307Z,51.1
2022-10-19T00:45:00.431Z,51.2
2022-10-19T00:46:00.415Z,50.9
2022-10-19T00:47:00.319Z,51.4
2022-10-19T00:48:00.311Z,51.9
2022-10-19T00:49:01.407Z,51.0
2022-10-19T00:50:00.273Z,51.1
2022-10-19T00:51:00.299Z,52.4
2022-10-19T00:52:00.307Z,52.7
2022-10-19T00:53:00.289Z,53.1
2022-10-19T00:54:00.278Z,51.1
2022-10-19T00:55:00.424Z,51.1
2022-10-19T00:56:00.309Z,51.4
2022-10-19T00:57:00.311Z,50.8
2022-10-19T00:58:00.288Z,50.7
2022-10-19T00:59:00.304Z,51.2
2022-10-19T01:00:00.290Z,51.4
2022-10-19T01:01:00.496Z,50.4
2022-10-19T01:02:00.352Z,50.3
2022-10-19T01:03:00.385Z,51.4
2022-10-19T01:04:00.309Z,51.3
2022-10-19T01:05:00.291Z,50.3
2022-10-19T01:06:00.290Z,50.2
2022-10-19T01:07:00.522Z,50.3
2022-10-19T01:08:00.300Z,50.2
2022-10-19T01:09:00.377Z,49.8
2022-10-19T01:10:00.280Z,50.0
2022-10-19T01:11:00.373Z,49.9
2022-10-19T01:12:00.340Z,50.1
2022-10-19T01:13:00.577Z,50.1
2022-10-19T01:14:00.377Z,50.2
2022-10-19T01:15:00.292Z,50.1
2022-10-19T01:16:00.446Z,50.5
2022-10-19T01:17:00.395Z,51.1
2022-10-19T01:18:00.300Z,51.3
2022-10-19T01:19:00.415Z,51.4
2022-10-19T01:20:00.294Z,50.9
2022-10-19T01:21:00.305Z,51.5
2022-10-19T01:22:00.313Z,51.4
2022-10-19T01:23:00.299Z,51.3
2022-10-19T01:24:00.295Z,51.4
2022-10-19T01:25:00.552Z,50.9
2022-10-19T01:26:00.315Z,50.6
2022-10-19T01:27:00.300Z,50.9
2022-10-19T01:28:00.298Z,50.6
2022-10-19T01:29:00.350Z,50.8
2022-10-19T01:30:00.312Z,50.8
2022-10-19T01:31:00.416Z,50.7
2022-10-19T01:32:00.530Z,51.0
2022-10-19T01:33:00.338Z,51.2
2022-10-19T01:34:00.284Z,51.4
2022-10-19T01:35:00.312Z,51.0
2022-10-19T01:36:00.328Z,51.2
2022-10-19T01:37:00.528Z,52.0
2022-10-19T01:38:00.302Z,50.9
2022-10-19T01:39:00.302Z,51.9
2022-10-19T01:40:00.298Z,52.3
2022-10-19T01:41:00.295Z,51.4
2022-10-19T01:42:00.403Z,51.5
2022-10-19T01:43:00.512Z,51.1
2022-10-19T01:44:00.315Z,50.8
2022-10-19T01:45:00.319Z,51.0
2022-10-19T01:46:00.311Z,51.5
2022-10-19T01:47:00.431Z,51.7
2022-10-19T01:48:00.382Z,51.6
2022-10-19T01:49:00.556Z,51.4
2022-10-19T01:50:00.310Z,51.0
2022-10-19T01:51:00.305Z,51.4
2022-10-19T01:52:00.341Z,52.1
2022-10-19T01:53:00.314Z,52.0
2022-10-19T01:54:00.330Z,51.6
2022-10-19T01:55:00.433Z,51.6
2022-10-19T01:56:00.285Z,51.5
2022-10-19T01:57:00.342Z,51.4
2022-10-19T01:58:00.313Z,51.7
2022-10-19T01:59:00.300Z,52.4
2022-10-19T02:00:00.342Z,52.2
2022-10-19T02:01:00.536Z,52.6
2022-10-19T02:02:00.303Z,52.5
2022-10-19T02:03:00.531Z,53.3
2022-10-19T02:04:00.293Z,53.6
2022-10-19T02:05:00.302Z,52.7
2022-10-19T02:06:00.309Z,52.3
2022-10-19T02:07:00.443Z,52.2
2022-10-19T02:08:00.309Z,52.1
2022-10-19T02:09:00.304Z,52.4
2022-10-19T02:10:00.396Z,51.7
2022-10-19T02:11:00.316Z,51.9
2022-10-19T02:12:00.293Z,52.1
2022-10-19T02:13:00.435Z,52.0
2022-10-19T02:14:00.308Z,51.8
2022-10-19T02:15:00.294Z,51.9
2022-10-19T02:16:00.309Z,52.1
2022-10-19T02:17:00.293Z,52.3
2022-10-19T02:18:00.581Z,51.8
2022-10-19T02:19:00.479Z,52.2
2022-10-19T02:20:00.293Z,51.4
2022-10-19T02:21:00.295Z,51.7
2022-10-19T02:22:00.299Z,52.4
2022-10-19T02:23:00.325Z,51.9
2022-10-19T02:24:00.312Z,51.6
2022-10-19T02:25:00.485Z,52.0
2022-10-19T02:26:00.299Z,51.5
2022-10-19T02:27:00.306Z,51.7
2022-10-19T02:28:00.339Z,51.8
2022-10-19T02:29:00.407Z,52.1
2022-10-19T02:30:00.322Z,51.9
2022-10-19T02:31:00.467Z,52.0
2022-10-19T02:32:00.309Z,52.0
2022-10-19T02:33:00.423Z,52.2
2022-10-19T02:34:00.371Z,52.3
2022-10-19T02:35:00.308Z,52.3
2022-10-19T02:36:00.380Z,52.9
2022-10-19T02:37:00.426Z,53.0
2022-10-19T02:38:00.315Z,52.6
2022-10-19T02:39:00.289Z,52.6
2022-10-19T02:40:00.290Z,52.5
2022-10-19T02:41:00.291Z,53.0
2022-10-19T02:42:00.304Z,52.5
2022-10-19T02:43:00.459Z,52.3
2022-10-19T02:44:00.304Z,52.3
2022-10-19T02:45:00.274Z,52.8
2022-10-19T02:46:00.304Z,52.9
2022-10-19T02:47:00.301Z,54.0
2022-10-19T02:48:00.407Z,53.1
2022-10-19T02:49:00.578Z,53.4
2022-10-19T02:50:00.305Z,54.7
2022-10-19T02:51:00.304Z,53.9
2022-10-19T02:52:00.291Z,53.7
2022-10-19T02:53:00.299Z,54.7
2022-10-19T02:54:04.122Z,53.7
2022-10-19T02:55:00.443Z,52.7
2022-10-19T02:56:00.288Z,53.2
2022-10-19T02:57:00.308Z,53.1
2022-10-19T02:58:00.269Z,53.2
2022-10-19T02:59:00.292Z,52.9
2022-10-19T03:00:00.284Z,53.0
2022-10-19T03:01:00.681Z,52.9
2022-10-19T03:02:00.283Z,52.6
2022-10-19T03:03:00.324Z,53.7
2022-10-19T03:04:00.402Z,54.3
2022-10-19T03:05:00.306Z,53.6
2022-10-19T03:06:00.290Z,53.4
2022-10-19T03:07:00.407Z,53.6
2022-10-19T03:08:00.341Z,53.6
2022-10-19T03:09:00.308Z,53.9
2022-10-19T03:10:00.276Z,53.6
2022-10-19T03:11:00.309Z,52.8
2022-10-19T03:12:00.278Z,53.0
2022-10-19T03:13:00.397Z,54.2
2022-10-19T03:14:00.300Z,54.8
2022-10-19T03:15:00.364Z,54.3
2022-10-19T03:16:00.276Z,54.5
2022-10-19T03:17:00.304Z,54.0
2022-10-19T03:18:00.289Z,56.8
2022-10-19T03:19:00.611Z,54.3
2022-10-19T03:20:00.329Z,54.3
2022-10-19T03:21:00.320Z,54.4
2022-10-19T03:22:00.375Z,54.2
2022-10-19T03:23:00.290Z,54.7
2022-10-19T03:24:00.291Z,53.6
2022-10-19T03:25:00.633Z,53.1
2022-10-19T03:26:00.277Z,54.3
2022-10-19T03:27:00.295Z,54.3
2022-10-19T03:28:00.291Z,54.3
2022-10-19T03:29:00.326Z,53.7
2022-10-19T03:30:00.297Z,53.5
2022-10-19T03:31:00.451Z,53.5
2022-10-19T03:32:00.287Z,52.7
2022-10-19T03:33:00.284Z,53.2
2022-10-19T03:34:00.475Z,53.6
2022-10-19T03:35:00.415Z,54.6
2022-10-19T03:36:00.307Z,52.9
2022-10-19T03:37:00.373Z,54.4
2022-10-19T03:38:00.288Z,52.8
2022-10-19T03:39:00.286Z,53.5
2022-10-19T03:40:00.301Z,52.2
2022-10-19T03:41:00.297Z,53.4
2022-10-19T03:42:00.286Z,52.3
2022-10-19T03:43:00.461Z,52.3
2022-10-19T03:45:00.350Z,52.3
2022-10-19T03:46:00.369Z,52.3
2022-10-19T03:47:00.312Z,52.8
2022-10-19T03:48:00.342Z,52.6
2022-10-19T03:49:00.419Z,51.5
2022-10-19T03:50:00.448Z,52.2
2022-10-19T03:51:00.468Z,52.2
2022-10-19T03:52:00.304Z,54.0
2022-10-19T03:53:00.365Z,52.0
2022-10-19T03:54:00.318Z,51.7
2022-10-19T03:55:00.553Z,51.1
2022-10-19T03:56:00.293Z,50.8
2022-10-19T03:57:00.297Z,50.8
2022-10-19T03:58:00.283Z,51.6
2022-10-19T03:59:00.288Z,51.7
2022-10-19T04:00:00.267Z,51.4
2022-10-19T04:01:00.508Z,50.6
2022-10-19T04:02:00.273Z,50.6
2022-10-19T04:03:00.273Z,50.6
2022-10-19T04:04:00.269Z,49.9
2022-10-19T04:05:00.287Z,49.9
2022-10-19T04:06:00.504Z,50.4
2022-10-19T04:07:00.490Z,50.9
2022-10-19T04:08:00.275Z,50.4
2022-10-19T04:09:00.287Z,49.6
2022-10-19T04:10:00.277Z,49.7
2022-10-19T04:11:00.274Z,49.3
2022-10-19T04:12:00.286Z,49.4
2022-10-19T04:13:00.482Z,49.2
2022-10-19T04:14:00.371Z,49.7
2022-10-19T04:15:00.284Z,49.6
2022-10-19T04:16:00.284Z,50.2
2022-10-19T04:17:00.302Z,50.4
2022-10-19T04:18:00.305Z,49.5
2022-10-19T04:19:00.669Z,51.4
2022-10-19T04:20:00.315Z,50.8
2022-10-19T04:21:00.439Z,49.9
2022-10-19T04:22:00.330Z,49.1
2022-10-19T04:23:00.359Z,49.0
2022-10-19T04:24:00.289Z,49.5
2022-10-19T04:25:00.482Z,48.6
2022-10-19T04:26:00.366Z,47.6
2022-10-19T04:27:00.314Z,47.9
2022-10-19T04:28:00.339Z,48.2
2022-10-19T04:29:00.400Z,48.3
2022-10-19T04:30:00.301Z,50.1
2022-10-19T04:31:00.423Z,49.2
2022-10-19T04:32:00.352Z,49.1
2022-10-19T04:33:00.310Z,48.2
2022-10-19T04:34:00.299Z,47.6
2022-10-19T04:35:00.311Z,48.0
2022-10-19T04:36:00.407Z,46.7
2022-10-19T04:37:00.536Z,46.0
2022-10-19T04:38:00.271Z,45.4
2022-10-19T04:39:00.301Z,45.3
2022-10-19T04:40:00.272Z,45.0
2022-10-19T04:41:00.289Z,44.9
2022-10-19T04:42:00.287Z,45.0
2022-10-19T04:43:00.411Z,45.0
2022-10-19T04:44:00.320Z,44.1
2022-10-19T04:45:00.289Z,44.3
2022-10-19T04:46:00.283Z,43.2
2022-10-19T04:47:00.303Z,40.8
2022-10-19T04:48:00.277Z,37.9
2022-10-19T04:49:00.434Z,35.9
2022-10-19T04:50:00.302Z,34.0
2022-10-19T04:51:00.462Z,32.7
2022-10-19T04:52:00.268Z,31.4
2022-10-19T04:53:00.281Z,30.0
2022-10-19T04:54:00.356Z,28.8
2022-10-19T04:55:00.452Z,28.0
2022-10-19T04:56:00.293Z,26.7
2022-10-19T04:57:00.291Z,26.4
2022-10-19T04:58:00.283Z,26.0
2022-10-19T04:59:00.293Z,25.3
2022-10-19T05:00:00.309Z,24.3
2022-10-19T05:01:00.560Z,24.0
2022-10-19T05:02:00.294Z,23.5
2022-10-19T05:03:00.290Z,22.7
2022-10-19T05:04:00.404Z,22.2
2022-10-19T05:05:00.294Z,21.5
2022-10-19T05:06:00.409Z,20.4
2022-10-19T05:07:00.428Z,20.6
2022-10-19T05:08:00.351Z,20.5
2022-10-19T05:09:00.329Z,20.4
2022-10-19T05:10:00.358Z,20.0
2022-10-19T05:11:00.295Z,19.6
2022-10-19T05:12:00.287Z,19.5
2022-10-19T05:13:00.525Z,19.3
2022-10-19T05:14:00.325Z,19.1
2022-10-19T05:15:00.346Z,18.6
2022-10-19T05:16:00.302Z,18.2
2022-10-19T05:17:00.306Z,18.1
2022-10-19T05:18:00.316Z,17.9
2022-10-19T05:19:00.466Z,17.6
2022-10-19T05:20:00.301Z,17.3
2022-10-19T05:21:00.442Z,16.9
2022-10-19T05:22:00.285Z,16.7
2022-10-19T05:23:04.702Z,16.3
2022-10-19T05:24:00.277Z,16.1
2022-10-19T05:25:00.423Z,15.3
2022-10-19T05:26:00.302Z,15.3
2022-10-19T05:27:00.289Z,15.4
2022-10-19T05:28:00.277Z,15.2
2022-10-19T05:29:00.330Z,14.9
2022-10-19T05:30:00.288Z,14.8
2022-10-19T05:31:00.435Z,14.7
2022-10-19T05:32:00.288Z,14.7
2022-10-19T05:33:00.298Z,14.7
2022-10-19T05:34:00.390Z,14.3
2022-10-19T05:35:00.304Z,14.4
2022-10-19T05:36:00.447Z,14.7
2022-10-19T05:37:00.446Z,14.2
2022-10-19T05:38:00.303Z,14.7
2022-10-19T05:39:00.294Z,14.8
2022-10-19T05:40:00.316Z,14.7
2022-10-19T05:41:00.308Z,14.7
2022-10-19T05:42:00.293Z,14.5
2022-10-19T05:43:00.453Z,14.4
2022-10-19T05:44:00.286Z,13.9
2022-10-19T05:45:00.302Z,13.6
2022-10-19T05:46:00.301Z,13.5
2022-10-19T05:47:00.319Z,13.1
2022-10-19T05:48:00.284Z,13.1
2022-10-19T05:49:00.403Z,12.9
2022-10-19T05:50:00.294Z,12.6
2022-10-19T05:51:00.511Z,12.8
2022-10-19T05:52:00.402Z,12.7
2022-10-19T05:53:00.290Z,12.5
2022-10-19T05:54:00.351Z,12.4
2022-10-19T05:55:00.418Z,11.7
2022-10-19T05:56:00.319Z,11.7
2022-10-19T05:57:00.324Z,11.5
2022-10-19T05:58:00.277Z,11.5
2022-10-19T05:59:00.374Z,11.3
2022-10-19T06:00:00.329Z,11.1
2022-10-19T06:01:00.512Z,11.3
2022-10-19T06:02:00.346Z,11.5
2022-10-19T06:03:00.382Z,11.2
2022-10-19T06:04:00.396Z,11.2
2022-10-19T06:05:00.301Z,11.1
2022-10-19T06:06:00.296Z,10.9
2022-10-19T06:07:00.694Z,10.9
2022-10-19T06:08:00.296Z,10.8
2022-10-19T06:09:00.304Z,10.8
2022-10-19T06:10:00.291Z,10.5
2022-10-19T06:11:00.287Z,10.4
2022-10-19T06:12:00.297Z,10.5
2022-10-19T06:13:00.420Z,10.9
2022-10-19T06:14:00.277Z,10.9
2022-10-19T06:15:00.307Z,11.0
2022-10-19T06:16:00.271Z,11.1
2022-10-19T06:17:00.311Z,10.9
2022-10-19T06:18:00.366Z,10.7
2022-10-19T06:19:00.523Z,10.5
2022-10-19T06:20:00.283Z,10.4
2022-10-19T06:21:00.393Z,10.6
2022-10-19T06:22:00.511Z,10.0
2022-10-19T06:23:00.333Z,10.4
2022-10-19T06:24:00.361Z,10.5
2022-10-19T06:25:00.531Z,10.6
2022-10-19T06:26:00.348Z,10.2
2022-10-19T06:27:00.328Z,9.9
2022-10-19T06:28:00.385Z,10.0
2022-10-19T06:29:00.372Z,9.8
2022-10-19T06:30:00.338Z,9.6
2022-10-19T06:31:00.669Z,9.6
2022-10-19T06:32:00.309Z,9.6
2022-10-19T06:33:00.442Z,9.7
2022-10-19T06:34:00.416Z,9.9
2022-10-19T06:35:00.329Z,10.7
2022-10-19T06:36:00.372Z,10.9
2022-10-19T06:37:00.508Z,10.6
2022-10-19T06:38:00.339Z,11.5
2022-10-19T06:39:00.280Z,11.7
2022-10-19T06:40:04.718Z,11.3
2022-10-19T06:41:00.294Z,11.0
2022-10-19T06:42:00.361Z,10.8
2022-10-19T06:43:00.576Z,10.8
2022-10-19T06:44:00.301Z,10.7
2022-10-19T06:45:00.366Z,10.0
2022-10-19T06:46:00.306Z,10.0
2022-10-19T06:47:00.313Z,9.9
2022-10-19T06:48:03.519Z,10.1
2022-10-19T06:49:00.458Z,10.1
2022-10-19T06:50:00.400Z,10.4
2022-10-19T06:51:00.313Z,10.4
2022-10-19T06:52:00.515Z,10.0
2022-10-19T06:53:00.273Z,9.6
2022-10-19T06:54:00.293Z,10.0
2022-10-19T06:55:00.500Z,10.2
2022-10-19T06:56:00.309Z,10.1
2022-10-19T06:57:00.298Z,10.2
2022-10-19T06:58:00.294Z,10.2
2022-10-19T06:59:00.291Z,9.6
2022-10-19T07:00:00.297Z,9.6
2022-10-19T07:01:00.464Z,9.2
2022-10-19T07:02:00.289Z,9.5
2022-10-19T07:03:00.285Z,9.3
2022-10-19T07:04:00.300Z,9.0
2022-10-19T07:05:04.630Z,8.9
2022-10-19T07:06:00.287Z,9.1
2022-10-19T07:07:00.536Z,9.1
2022-10-19T07:09:00.274Z,9.1
2022-10-19T07:10:00.288Z,9.0
2022-10-19T07:11:00.296Z,9.3
2022-10-19T07:12:00.290Z,8.9
2022-10-19T07:13:00.583Z,9.1
2022-10-19T07:14:00.275Z,9.0
2022-10-19T07:15:00.312Z,9.3
2022-10-19T07:16:00.281Z,9.3
2022-10-19T07:17:00.292Z,9.0
2022-10-19T07:18:00.306Z,8.7
2022-10-19T07:19:00.526Z,9.4
2022-10-19T07:20:00.308Z,9.7
2022-10-19T07:21:00.293Z,9.7
2022-10-19T07:22:00.543Z,9.4
2022-10-19T07:23:00.281Z,9.1
2022-10-19T07:24:00.361Z,8.7
2022-10-19T07:25:00.447Z,8.7
2022-10-19T07:26:00.376Z,8.5
2022-10-19T07:27:00.284Z,8.6
2022-10-19T07:28:00.356Z,8.2
2022-10-19T07:29:00.305Z,7.6
2022-10-19T07:30:00.365Z,7.7
2022-10-19T07:31:00.474Z,7.9
2022-10-19T07:32:00.311Z,8.1
2022-10-19T07:33:00.348Z,8.3
2022-10-19T07:34:00.367Z,8.3
2022-10-19T07:35:00.339Z,8.4
2022-10-19T07:36:00.281Z,8.4
2022-10-19T07:37:00.724Z,10.0
2022-10-19T07:38:00.299Z,9.8
2022-10-19T07:39:00.291Z,9.6
2022-10-19T07:40:00.292Z,9.4
2022-10-19T07:41:00.309Z,9.2
2022-10-19T07:42:00.318Z,9.5
2022-10-19T07:43:00.431Z,9.8
2022-10-19T07:44:00.283Z,9.6
2022-10-19T07:45:00.278Z,9.5
2022-10-19T07:46:00.288Z,9.4
2022-10-19T07:47:00.296Z,9.5
2022-10-19T07:48:00.275Z,9.6
2022-10-19T07:49:00.528Z,9.7
2022-10-19T07:50:00.297Z,9.8
2022-10-19T07:51:00.315Z,9.7
2022-10-19T07:52:00.470Z,9.3
2022-10-19T07:53:00.297Z,9.2
2022-10-19T07:54:00.312Z,9.6
2022-10-19T07:55:00.449Z,10.0
2022-10-19T07:56:00.289Z,10.5
2022-10-19T07:57:00.355Z,10.2
2022-10-19T07:58:00.305Z,9.6
2022-10-19T07:59:00.336Z,9.4
2022-10-19T08:00:00.335Z,9.6
2022-10-19T08:01:00.472Z,9.7
2022-10-19T08:02:00.402Z,9.5
2022-10-19T08:03:31.650Z,9.6
2022-10-19T08:05:03.959Z,9.5
2022-10-19T08:06:00.321Z,9.5
2022-10-19T08:07:00.525Z,9.6
2022-10-19T08:08:00.451Z,9.7
2022-10-19T08:09:00.499Z,9.6
2022-10-19T08:10:00.289Z,9.3
2022-10-19T08:11:00.372Z,9.2
2022-10-19T08:12:00.276Z,9.0
2022-10-19T08:13:00.464Z,8.8
2022-10-19T08:14:00.311Z,8.9
2022-10-19T08:15:00.287Z,9.0
2022-10-19T08:16:00.292Z,8.9
2022-10-19T08:17:00.295Z,8.6
2022-10-19T08:18:00.290Z,8.5
2022-10-19T08:19:00.693Z,8.5
2022-10-19T08:20:00.297Z,8.3
2022-10-19T08:21:00.313Z,8.3
2022-10-19T08:22:00.314Z,8.0
2022-10-19T08:23:00.493Z,7.4
2022-10-19T08:24:00.298Z,7.2
2022-10-19T08:25:00.448Z,7.9
2022-10-19T08:26:00.292Z,8.2
2022-10-19T08:27:00.335Z,8.7
2022-10-19T08:28:00.300Z,8.8
2022-10-19T08:29:00.308Z,8.8
2022-10-19T08:30:00.300Z,8.6
2022-10-19T08:31:00.430Z,8.3
2022-10-19T08:32:00.323Z,8.6
2022-10-19T08:33:00.339Z,8.6
2022-10-19T08:34:00.295Z,8.6
2022-10-19T08:35:00.312Z,8.4
2022-10-19T08:36:00.296Z,8.3
2022-10-19T08:37:04.098Z,8.0
2022-10-19T08:38:02.795Z,8.2
2022-10-19T08:39:00.288Z,7.8
2022-10-19T08:40:00.339Z,7.7
2022-10-19T08:41:00.275Z,8.2
2022-10-19T08:42:00.359Z,8.7
2022-10-19T08:43:00.531Z,9.1
2022-10-19T08:44:00.303Z,9.6
2022-10-19T08:45:00.334Z,9.3
2022-10-19T08:46:00.273Z,10.5
2022-10-19T08:47:02.439Z,11.6
2022-10-19T08:48:00.338Z,13.0
2022-10-19T08:49:00.452Z,14.5
2022-10-19T08:50:00.319Z,15.1
2022-10-19T08:51:00.351Z,15.1
2022-10-19T08:52:00.367Z,14.8
2022-10-19T08:53:00.482Z,13.6
2022-10-19T08:54:00.346Z,12.3
2022-10-19T08:55:00.519Z,11.4
2022-10-19T08:56:03.765Z,12.8
2022-10-19T08:57:00.320Z,13.0
2022-10-19T08:58:00.344Z,14.8
2022-10-19T08:59:00.308Z,16.9
2022-10-19T09:00:00.315Z,18.2
2022-10-19T09:01:00.597Z,19.3
2022-10-19T09:02:00.313Z,20.5
2022-10-19T09:03:00.331Z,21.6
2022-10-19T09:04:00.312Z,22.5
2022-10-19T09:05:00.299Z,23.4
2022-10-19T09:06:00.300Z,23.8
2022-10-19T09:07:00.442Z,24.0
2022-10-19T09:08:00.432Z,24.9
2022-10-19T09:09:00.393Z,23.6
2022-10-19T09:10:00.306Z,20.6
2022-10-19T09:11:00.363Z,21.0
2022-10-19T09:12:00.332Z,22.9
2022-10-19T09:13:00.427Z,23.4
2022-10-19T09:14:05.077Z,23.1
2022-10-19T09:15:00.284Z,23.9
2022-10-19T09:16:00.313Z,24.0
2022-10-19T09:17:00.311Z,21.8
2022-10-19T09:18:00.313Z,20.9
2022-10-19T09:19:00.447Z,21.0
2022-10-19T09:20:00.305Z,20.8
2022-10-19T09:21:00.299Z,18.5
2022-10-19T09:22:00.293Z,17.3
2022-10-19T09:23:00.540Z,16.6
2022-10-19T09:24:00.453Z,16.1
2022-10-19T09:25:00.499Z,17.8
2022-10-19T09:26:00.353Z,19.9
2022-10-19T09:27:00.400Z,21.5
2022-10-19T09:29:00.389Z,23.2
2022-10-19T09:30:00.289Z,23.9
2022-10-19T09:31:00.477Z,24.5
2022-10-19T09:32:00.400Z,25.3
2022-10-19T09:33:00.381Z,25.3
2022-10-19T09:34:00.379Z,25.6
2022-10-19T09:35:00.311Z,26.3
2022-10-19T09:36:00.406Z,26.3
2022-10-19T09:37:00.554Z,26.3
2022-10-19T09:38:00.434Z,26.2
2022-10-19T09:39:00.378Z,25.4
2022-10-19T09:40:00.291Z,24.8
2022-10-19T09:41:00.308Z,24.0
2022-10-19T09:42:00.290Z,23.4
2022-10-19T09:43:00.469Z,23.1
2022-10-19T09:44:00.275Z,22.9
2022-10-19T09:45:00.302Z,21.8
2022-10-19T09:46:00.306Z,21.2
2022-10-19T09:47:00.341Z,20.0
2022-10-19T09:48:08.658Z,19.3
2022-10-19T09:49:00.443Z,18.2
2022-10-19T09:50:00.316Z,17.8
2022-10-19T09:51:00.290Z,17.3
2022-10-19T09:52:00.286Z,17.2
2022-10-19T09:53:00.441Z,16.5
2022-10-19T09:54:00.282Z,15.6
2022-10-19T09:55:00.532Z,14.2
2022-10-19T09:56:00.288Z,13.6
2022-10-19T09:57:00.302Z,13.0
2022-10-19T09:58:00.305Z,12.6
2022-10-19T09:59:00.283Z,12.5
2022-10-19T10:00:00.308Z,12.7
2022-10-19T10:01:00.496Z,13.2
2022-10-19T10:02:00.366Z,14.0
2022-10-19T10:03:00.293Z,14.2
2022-10-19T10:04:00.290Z,13.2
2022-10-19T10:05:00.278Z,12.5
2022-10-19T10:06:00.303Z,12.5
2022-10-19T10:07:00.447Z,13.1
2022-10-19T10:08:00.417Z,13.1
2022-10-19T10:09:00.374Z,13.1
2022-10-19T10:10:00.356Z,13.5
2022-10-19T10:11:00.334Z,13.0
2022-10-19T10:12:00.495Z,13.1
2022-10-19T10:13:00.466Z,13.1
2022-10-19T10:14:00.319Z,13.2
2022-10-19T10:15:00.363Z,13.2
2022-10-19T10:16:00.328Z,13.7
2022-10-19T10:17:00.342Z,13.8
2022-10-19T10:18:00.276Z,13.8
2022-10-19T10:19:00.493Z,14.1
2022-10-19T10:20:00.312Z,14.5
2022-10-19T10:21:00.394Z,14.2
2022-10-19T10:22:00.419Z,14.4
2022-10-19T10:23:00.464Z,14.6
2022-10-19T10:24:00.308Z,14.5
2022-10-19T10:25:00.569Z,14.9
2022-10-19T10:26:00.295Z,15.0
2022-10-19T10:27:00.318Z,14.9
2022-10-19T10:28:00.318Z,14.8
2022-10-19T10:29:01.581Z,15.0
2022-10-19T10:30:00.464Z,14.7
2022-10-19T10:31:00.437Z,14.2
2022-10-19T10:32:00.293Z,14.6
2022-10-19T10:33:09.250Z,15.0
2022-10-19T10:34:06.585Z,14.8
2022-10-19T10:35:01.492Z,14.9
2022-10-19T10:36:00.345Z,14.5
2022-10-19T10:37:00.523Z,14.3
2022-10-19T10:38:00.495Z,14.4
2022-10-19T10:39:00.309Z,15.8
2022-10-19T10:40:03.618Z,15.9
2022-10-19T10:41:00.314Z,16.1
2022-10-19T10:42:00.291Z,16.9
2022-10-19T10:43:00.444Z,17.8
2022-10-19T10:44:03.694Z,18.1
2022-10-19T10:45:00.293Z,17.8
2022-10-19T10:46:00.291Z,17.4
2022-10-19T10:47:00.283Z,17.0
2022-10-19T10:48:00.358Z,16.4
2022-10-19T10:49:00.506Z,16.0
2022-10-19T10:50:00.294Z,16.0
2022-10-19T10:51:00.294Z,16.7
2022-10-19T10:52:00.337Z,17.5
2022-10-19T10:53:00.485Z,17.9
2022-10-19T10:54:00.306Z,18.1
2022-10-19T10:55:00.550Z,18.7
2022-10-19T10:56:00.368Z,19.1
2022-10-19T10:57:04.305Z,19.4
2022-10-19T10:58:00.314Z,20.1
2022-10-19T10:59:00.302Z,20.5
2022-10-19T11:00:00.374Z,20.8
2022-10-19T11:01:05.253Z,20.7
2022-10-19T11:02:00.399Z,21.4
2022-10-19T11:03:00.302Z,21.7
2022-10-19T11:04:00.362Z,22.2
2022-10-19T11:05:00.587Z,22.7
2022-10-19T11:06:00.304Z,24.3
2022-10-19T11:07:00.474Z,25.7
2022-10-19T11:08:00.518Z,26.3
2022-10-19T11:09:00.379Z,26.8
2022-10-19T11:10:00.296Z,27.5
2022-10-19T11:11:00.296Z,28.6
2022-10-19T11:12:00.295Z,28.3
2022-10-19T11:13:00.441Z,28.6
2022-10-19T11:14:00.301Z,28.6
2022-10-19T11:15:00.337Z,28.9
2022-10-19T11:16:00.304Z,29.6
2022-10-19T11:17:00.312Z,29.9
2022-10-19T11:18:00.296Z,30.1
2022-10-19T11:19:00.422Z,30.3
2022-10-19T11:20:00.313Z,30.3
2022-10-19T11:21:00.304Z,30.8
2022-10-19T11:22:00.307Z,31.1
2022-10-19T11:23:00.439Z,31.6
2022-10-19T11:24:00.309Z,31.8
2022-10-19T11:25:00.682Z,31.8
2022-10-19T11:26:00.314Z,32.1
2022-10-19T11:27:00.313Z,32.0
2022-10-19T11:28:00.306Z,32.2
2022-10-19T11:29:00.329Z,32.3
2022-10-19T11:30:00.304Z,32.6
2022-10-19T11:31:00.469Z,32.2
2022-10-19T11:32:00.348Z,32.1
2022-10-19T11:33:00.344Z,32.0
2022-10-19T11:34:00.493Z,32.2
2022-10-19T11:35:00.380Z,32.3
2022-10-19T11:36:00.324Z,32.3
2022-10-19T11:37:00.636Z,32.6
2022-10-19T11:38:18.798Z,32.6
2022-10-19T11:39:00.359Z,32.5
2022-10-19T11:40:00.341Z,32.4
2022-10-19T11:41:16.875Z,32.6
2022-10-19T11:42:00.372Z,32.5
2022-10-19T11:43:00.517Z,32.7
2022-10-19T11:44:00.304Z,32.8
2022-10-19T11:45:00.315Z,33.2
2022-10-19T11:46:00.320Z,33.2
2022-10-19T11:47:00.313Z,33.3
2022-10-19T11:48:00.308Z,33.5
2022-10-19T11:49:00.377Z,33.6
2022-10-19T11:50:00.349Z,33.8
2022-10-19T11:51:16.785Z,33.8
2022-10-19T11:52:00.279Z,34.2
2022-10-19T11:53:00.428Z,34.3
2022-10-19T11:54:00.311Z,34.4
2022-10-19T11:55:00.376Z,34.5
2022-10-19T11:56:00.293Z,34.8
2022-10-19T11:57:06.392Z,34.6
2022-10-19T11:58:00.315Z,34.8
2022-10-19T11:59:00.345Z,34.8
2022-10-19T12:00:08.573Z,35.1
2022-10-19T12:01:00.555Z,35.0
2022-10-19T12:02:00.354Z,35.1
2022-10-19T12:03:03.490Z,35.2
2022-10-19T12:04:00.303Z,35.9
2022-10-19T12:05:00.324Z,36.0
2022-10-19T12:06:00.291Z,35.7
2022-10-19T12:07:00.531Z,35.4
2022-10-19T12:08:00.409Z,35.5
2022-10-19T12:09:00.360Z,35.3
2022-10-19T12:10:00.295Z,35.4
2022-10-19T12:11:00.316Z,35.1
2022-10-19T12:12:00.289Z,35.0
2022-10-19T12:13:00.393Z,35.1
2022-10-19T12:14:00.282Z,34.9
2022-10-19T12:15:00.312Z,34.8
2022-10-19T12:16:00.286Z,34.9
2022-10-19T12:17:00.386Z,34.9
2022-10-19T12:18:00.322Z,34.9
2022-10-19T12:19:00.484Z,35.0
2022-10-19T12:20:00.370Z,35.0
2022-10-19T12:21:00.292Z,35.0
2022-10-19T12:22:00.349Z,35.4
2022-10-19T12:23:00.409Z,35.5
2022-10-19T12:24:00.341Z,36.7
2022-10-19T12:25:00.505Z,35.8
2022-10-19T12:26:00.281Z,35.7
2022-10-19T12:27:00.376Z,35.5
2022-10-19T12:28:00.401Z,35.8
2022-10-19T12:29:00.303Z,35.9
2022-10-19T12:30:00.298Z,36.1
2022-10-19T12:31:00.584Z,36.1
2022-10-19T12:32:00.291Z,36.2
2022-10-19T12:33:00.290Z,36.2
2022-10-19T12:34:00.317Z,36.6
2022-10-19T12:35:00.373Z,36.8
2022-10-19T12:36:00.301Z,36.8
2022-10-19T12:37:00.514Z,37.0
2022-10-19T12:38:00.516Z,37.2
2022-10-19T12:39:00.680Z,37.3
2022-10-19T12:40:00.328Z,37.4
2022-10-19T12:41:00.354Z,37.2
2022-10-19T12:42:00.388Z,37.3
2022-10-19T12:43:00.802Z,37.5
2022-10-19T12:44:00.322Z,37.6
2022-10-19T12:45:00.316Z,37.6
2022-10-19T12:46:00.401Z,37.6
2022-10-19T12:47:01.063Z,37.5
2022-10-19T12:48:00.310Z,37.5
2022-10-19T12:49:00.469Z,37.2
2022-10-19T12:50:00.358Z,36.9
2022-10-19T12:51:00.295Z,37.3
2022-10-19T12:52:00.317Z,37.1
2022-10-19T12:53:00.383Z,37.2
2022-10-19T12:54:00.359Z,37.3
2022-10-19T12:55:00.521Z,37.5
2022-10-19T12:56:00.436Z,37.4
2022-10-19T12:57:00.417Z,37.5
2022-10-19T12:58:00.405Z,37.7
2022-10-19T12:59:00.319Z,37.9
2022-10-19T13:00:00.323Z,38.1
2022-10-19T13:01:00.814Z,38.4
2022-10-19T13:02:00.292Z,38.5
2022-10-19T13:03:00.438Z,38.4
2022-10-19T13:04:00.389Z,38.3
2022-10-19T13:05:00.500Z,38.4
2022-10-19T13:06:00.421Z,38.7
2022-10-19T13:07:00.663Z,38.8
2022-10-19T13:08:00.492Z,38.8
2022-10-19T13:09:00.583Z,38.5
2022-10-19T13:10:00.401Z,38.8
2022-10-19T13:11:00.359Z,39.0
2022-10-19T13:12:00.307Z,38.8
2022-10-19T13:13:00.932Z,38.2
2022-10-19T13:14:00.318Z,38.2
2022-10-19T13:15:00.548Z,38.5
2022-10-19T13:16:00.297Z,38.7
2022-10-19T13:17:00.472Z,38.2
2022-10-19T13:18:00.393Z,38.6
2022-10-19T13:19:00.489Z,38.7
2022-10-19T13:20:00.468Z,38.6
2022-10-19T13:21:02.550Z,38.9
2022-10-19T13:22:00.385Z,38.7
2022-10-19T13:23:00.533Z,38.8
2022-10-19T13:24:00.465Z,39.3
2022-10-19T13:25:03.692Z,39.8
2022-10-19T13:26:00.311Z,39.8